sensor_id;sensor_type;location;lat;lon;timestamp;pressure;altitude;pressure_sealevel;temperature
15144;BMP180;7672;50.834;6.286;2022-08-04T00:01:20;99464.34;;;27.10
15144;BMP180;7672;50.834;6.286;2022-08-04T00:04:15;99466.41;;;27.05
15144;BMP180;7672;50.834;6.286;2022-08-04T00:07:23;99470.16;;;27.01
15144;BMP180;7672;50.834;6.286;2022-08-04T00:10:12;99464.44;;;26.96
15144;BMP180;7672;50.834;6.286;2022-08-04T00:12:46;99463.59;;;26.95
15144;BMP180;7672;50.834;6.286;2022-08-04T00:15:17;99463.69;;;26.94
15144;BMP180;7672;50.834;6.286;2022-08-04T00:17:59;99462.84;;;26.93
15144;BMP180;7672;50.834;6.286;2022-08-04T00:20:32;99462.13;;;26.91
15144;BMP180;7672;50.834;6.286;2022-08-04T00:23:01;99461.16;;;26.92
15144;BMP180;7672;50.834;6.286;2022-08-04T00:25:31;99462.13;;;26.91
15144;BMP180;7672;50.834;6.286;2022-08-04T00:28:00;99456.19;;;26.89
15144;BMP180;7672;50.834;6.286;2022-08-04T00:30:30;99453.59;;;26.89
15144;BMP180;7672;50.834;6.286;2022-08-04T00:32:59;99457.22;;;26.87
15144;BMP180;7672;50.834;6.286;2022-08-04T00:35:28;99450.47;;;26.84
15144;BMP180;7672;50.834;6.286;2022-08-04T00:38:01;99450.47;;;26.84
15144;BMP180;7672;50.834;6.286;2022-08-04T00:40:47;99446.31;;;26.82
15144;BMP180;7672;50.834;6.286;2022-08-04T00:43:32;99445.38;;;26.83
15144;BMP180;7672;50.834;6.286;2022-08-04T00:46:26;99446.53;;;26.79
15144;BMP180;7672;50.834;6.286;2022-08-04T00:49:40;99442.66;;;26.72
15144;BMP180;7672;50.834;6.286;2022-08-04T00:59:07;99444.38;;;26.59
15144;BMP180;7672;50.834;6.286;2022-08-04T01:01:54;99440.53;;;26.52
15144;BMP180;7672;50.834;6.286;2022-08-04T01:04:49;99442.38;;;26.50
15144;BMP180;7672;50.834;6.286;2022-08-04T01:16:15;99435.09;;;26.43
15144;BMP180;7672;50.834;6.286;2022-08-04T01:19:04;99432.72;;;26.40
15144;BMP180;7672;50.834;6.286;2022-08-04T01:28:41;99425.59;;;26.29
15144;BMP180;7672;50.834;6.286;2022-08-04T01:31:31;99425.78;;;26.26
15144;BMP180;7672;50.834;6.286;2022-08-04T01:34:04;99416.25;;;26.27
15144;BMP180;7672;50.834;6.286;2022-08-04T01:36:34;99420.47;;;26.28
15144;BMP180;7672;50.834;6.286;2022-08-04T01:39:05;99418.09;;;26.25
15144;BMP180;7672;50.834;6.286;2022-08-04T01:41:55;99413.94;;;26.22
15144;BMP180;7672;50.834;6.286;2022-08-04T01:44:27;99414.03;;;26.21
15144;BMP180;7672;50.834;6.286;2022-08-04T01:46:56;99422.94;;;26.17
15144;BMP180;7672;50.834;6.286;2022-08-04T01:49:28;99416.09;;;26.16
15144;BMP180;7672;50.834;6.286;2022-08-04T01:52:00;99417.22;;;26.12
15144;BMP180;7672;50.834;6.286;2022-08-04T01:54:33;99410.47;;;26.10
15144;BMP180;7672;50.834;6.286;2022-08-04T01:57:05;99419.16;;;26.09
15144;BMP180;7672;50.834;6.286;2022-08-04T01:59:53;99410.84;;;26.04
15144;BMP180;7672;50.834;6.286;2022-08-04T02:02:22;99409.28;;;26.01
15144;BMP180;7672;50.834;6.286;2022-08-04T02:04:52;99411.16;;;25.99
15144;BMP180;7672;50.834;6.286;2022-08-04T02:13:32;99402.19;;;25.91
15144;BMP180;7672;50.834;6.286;2022-08-04T02:16:15;99398.78;;;25.90
15144;BMP180;7672;50.834;6.286;2022-08-04T02:21:38;99392.75;;;25.90
15144;BMP180;7672;50.834;6.286;2022-08-04T02:24:14;99400.63;;;25.88
15144;BMP180;7672;50.834;6.286;2022-08-04T02:26:49;99382.59;;;25.87
15144;BMP180;7672;50.834;6.286;2022-08-04T02:29:20;99389.50;;;25.86
15144;BMP180;7672;50.834;6.286;2022-08-04T02:32:14;99386.38;;;25.81
15144;BMP180;7672;50.834;6.286;2022-08-04T02:35:13;99377.88;;;25.79
15144;BMP180;7672;50.834;6.286;2022-08-04T02:37:48;99383.88;;;25.80
15144;BMP180;7672;50.834;6.286;2022-08-04T02:40:23;99372.81;;;25.78
15144;BMP180;7672;50.834;6.286;2022-08-04T02:42:56;99376.31;;;25.77
15144;BMP180;7672;50.834;6.286;2022-08-04T02:45:29;99370.41;;;25.75
15144;BMP180;7672;50.834;6.286;2022-08-04T02:48:00;99366.25;;;25.72
15144;BMP180;7672;50.834;6.286;2022-08-04T02:50:52;99367.19;;;25.71
15144;BMP180;7672;50.834;6.286;2022-08-04T02:53:22;99358.75;;;25.68
15144;BMP180;7672;50.834;6.286;2022-08-04T02:55:56;99361.44;;;25.66
15144;BMP180;7672;50.834;6.286;2022-08-04T02:58:30;99366.78;;;25.63
15144;BMP180;7672;50.834;6.286;2022-08-04T03:01:00;99357.53;;;25.59
15144;BMP180;7672;50.834;6.286;2022-08-04T03:03:40;99359.31;;;25.59
15144;BMP180;7672;50.834;6.286;2022-08-04T03:06:38;99357.00;;;25.54
15144;BMP180;7672;50.834;6.286;2022-08-04T03:51:35;99344.38;;;25.08
15144;BMP180;7672;50.834;6.286;2022-08-04T04:00:45;99352.03;;;25.10
15144;BMP180;7672;50.834;6.286;2022-08-04T04:07:20;99354.94;;;25.04
15144;BMP180;7672;50.834;6.286;2022-08-04T04:16:23;99352.75;;;24.98
15144;BMP180;7672;50.834;6.286;2022-08-04T04:19:51;99349.50;;;24.94
15144;BMP180;7672;50.834;6.286;2022-08-04T04:25:34;99349.59;;;24.93
15144;BMP180;7672;50.834;6.286;2022-08-04T04:35:06;99355.47;;;24.95
15144;BMP180;7672;50.834;6.286;2022-08-04T04:43:41;99361.34;;;25.12
15144;BMP180;7672;50.834;6.286;2022-08-04T04:49:50;99358.41;;;25.32
15144;BMP180;7672;50.834;6.286;2022-08-04T04:52:52;99357.66;;;25.44
15144;BMP180;7672;50.834;6.286;2022-08-04T04:55:52;99367.06;;;25.59
15144;BMP180;7672;50.834;6.286;2022-08-04T04:58:27;99364.19;;;25.77
15144;BMP180;7672;50.834;6.286;2022-08-04T05:05:01;99359.31;;;26.13
15144;BMP180;7672;50.834;6.286;2022-08-04T05:14:45;99360.84;;;26.81
15144;BMP180;7672;50.834;6.286;2022-08-04T05:17:32;99360.91;;;27.05
15144;BMP180;7672;50.834;6.286;2022-08-04T05:20:41;99352.97;;;27.32
15144;BMP180;7672;50.834;6.286;2022-08-04T05:23:41;99351.28;;;27.55
15144;BMP180;7672;50.834;6.286;2022-08-04T05:26:34;99359.88;;;27.81
15144;BMP180;7672;50.834;6.286;2022-08-04T05:29:10;99363.34;;;28.05
15144;BMP180;7672;50.834;6.286;2022-08-04T05:31:53;99363.47;;;28.26
15144;BMP180;7672;50.834;6.286;2022-08-04T05:34:29;99345.72;;;28.44
15144;BMP180;7672;50.834;6.286;2022-08-04T05:37:15;99349.66;;;28.60
15144;BMP180;7672;50.834;6.286;2022-08-04T05:40:07;99354.44;;;28.77
15144;BMP180;7672;50.834;6.286;2022-08-04T05:42:40;99349.78;;;28.93
15144;BMP180;7672;50.834;6.286;2022-08-04T05:45:46;99348.75;;;29.06
15144;BMP180;7672;50.834;6.286;2022-08-04T05:48:17;99348.16;;;29.25
15144;BMP180;7672;50.834;6.286;2022-08-04T05:50:54;99351.03;;;29.43
15144;BMP180;7672;50.834;6.286;2022-08-04T05:53:39;99356.44;;;29.62
15144;BMP180;7672;50.834;6.286;2022-08-04T05:56:24;99355.47;;;29.85
15144;BMP180;7672;50.834;6.286;2022-08-04T05:59:05;99353.81;;;30.06
15144;BMP180;7672;50.834;6.286;2022-08-04T06:01:37;99355.38;;;30.29
15144;BMP180;7672;50.834;6.286;2022-08-04T06:04:32;99349.81;;;30.54
15144;BMP180;7672;50.834;6.286;2022-08-04T06:07:02;99355.28;;;30.82
15144;BMP180;7672;50.834;6.286;2022-08-04T06:09:38;99354.50;;;31.11
15144;BMP180;7672;50.834;6.286;2022-08-04T06:12:24;99352.84;;;31.40
15144;BMP180;7672;50.834;6.286;2022-08-04T06:15:12;99351.88;;;31.71
15144;BMP180;7672;50.834;6.286;2022-08-04T06:18:14;99347.78;;;31.96
15144;BMP180;7672;50.834;6.286;2022-08-04T06:21:08;99339.34;;;32.23
15144;BMP180;7672;50.834;6.286;2022-08-04T06:23:49;99340.69;;;32.46
15144;BMP180;7672;50.834;6.286;2022-08-04T06:26:29;99340.44;;;32.67
15144;BMP180;7672;50.834;6.286;2022-08-04T06:29:10;99340.94;;;32.90
15144;BMP180;7672;50.834;6.286;2022-08-04T06:31:50;99332.66;;;33.13
15144;BMP180;7672;50.834;6.286;2022-08-04T06:35:03;99342.47;;;33.38
15144;BMP180;7672;50.834;6.286;2022-08-04T06:37:33;99348.34;;;33.59
15144;BMP180;7672;50.834;6.286;2022-08-04T06:40:16;99347.78;;;33.82
15144;BMP180;7672;50.834;6.286;2022-08-04T06:43:09;99359.25;;;34.08
15144;BMP180;7672;50.834;6.286;2022-08-04T06:45:55;99362.09;;;34.32
15144;BMP180;7672;50.834;6.286;2022-08-04T06:48:28;99358.06;;;34.54
15144;BMP180;7672;50.834;6.286;2022-08-04T06:51:03;99366.81;;;34.80
15144;BMP180;7672;50.834;6.286;2022-08-04T06:53:56;99360.63;;;35.07
15144;BMP180;7672;50.834;6.286;2022-08-04T06:56:29;99354.50;;;35.31
15144;BMP180;7672;50.834;6.286;2022-08-04T06:59:04;99362.22;;;35.58
15144;BMP180;7672;50.834;6.286;2022-08-04T07:01:51;99364.94;;;35.82
15144;BMP180;7672;50.834;6.286;2022-08-04T07:04:30;99356.97;;;36.07
15144;BMP180;7672;50.834;6.286;2022-08-04T07:07:04;99362.63;;;36.36
15144;BMP180;7672;50.834;6.286;2022-08-04T07:09:37;99358.69;;;36.64
15144;BMP180;7672;50.834;6.286;2022-08-04T07:12:09;99360.00;;;36.92
15144;BMP180;7672;50.834;6.286;2022-08-04T07:14:44;99361.44;;;37.18
15144;BMP180;7672;50.834;6.286;2022-08-04T07:17:20;99362.53;;;37.47
15144;BMP180;7672;50.834;6.286;2022-08-04T07:19:57;99361.44;;;37.80
15144;BMP180;7672;50.834;6.286;2022-08-04T07:22:25;99360.22;;;38.21
15144;BMP180;7672;50.834;6.286;2022-08-04T07:25:09;99367.44;;;38.71
15144;BMP180;7672;50.834;6.286;2022-08-04T07:28:03;99358.78;;;39.28
15144;BMP180;7672;50.834;6.286;2022-08-04T07:30:39;99353.16;;;39.95
15144;BMP180;7672;50.834;6.286;2022-08-04T07:33:44;99351.63;;;40.84
15144;BMP180;7672;50.834;6.286;2022-08-04T07:36:37;99352.38;;;41.73
15144;BMP180;7672;50.834;6.286;2022-08-04T07:39:17;99356.06;;;42.44
15144;BMP180;7672;50.834;6.286;2022-08-04T07:42:03;99350.78;;;43.15
15144;BMP180;7672;50.834;6.286;2022-08-04T07:44:42;99353.41;;;43.85
15144;BMP180;7672;50.834;6.286;2022-08-04T07:47:20;99362.94;;;44.67
15144;BMP180;7672;50.834;6.286;2022-08-04T07:50:08;99356.66;;;45.46
15144;BMP180;7672;50.834;6.286;2022-08-04T07:52:45;99368.28;;;46.27
15144;BMP180;7672;50.834;6.286;2022-08-04T07:55:45;99369.41;;;47.13
15144;BMP180;7672;50.834;6.286;2022-08-04T07:58:29;99367.50;;;47.87
15144;BMP180;7672;50.834;6.286;2022-08-04T08:01:11;99368.56;;;48.58
15144;BMP180;7672;50.834;6.286;2022-08-04T08:03:48;99362.09;;;49.24
15144;BMP180;7672;50.834;6.286;2022-08-04T08:06:20;99363.75;;;49.89
15144;BMP180;7672;50.834;6.286;2022-08-04T08:09:06;99370.31;;;50.56
15144;BMP180;7672;50.834;6.286;2022-08-04T08:11:45;99367.25;;;51.15
15144;BMP180;7672;50.834;6.286;2022-08-04T08:14:50;99373.53;;;51.81
15144;BMP180;7672;50.834;6.286;2022-08-04T08:17:37;99374.97;;;52.33
15144;BMP180;7672;50.834;6.286;2022-08-04T08:20:38;99368.50;;;52.84
15144;BMP180;7672;50.834;6.286;2022-08-04T08:23:14;99365.19;;;53.22
15144;BMP180;7672;50.834;6.286;2022-08-04T08:25:56;99365.91;;;53.52
15144;BMP180;7672;50.834;6.286;2022-08-04T08:28:45;99370.88;;;53.78
15144;BMP180;7672;50.834;6.286;2022-08-04T08:31:32;99370.38;;;54.19
15144;BMP180;7672;50.834;6.286;2022-08-04T08:34:20;99381.44;;;54.61
15144;BMP180;7672;50.834;6.286;2022-08-04T08:41:07;99380.28;;;55.47
15144;BMP180;7672;50.834;6.286;2022-08-04T08:47:45;99387.69;;;55.83
15144;BMP180;7672;50.834;6.286;2022-08-04T09:03:37;99390.69;;;54.50
15144;BMP180;7672;50.834;6.286;2022-08-04T09:09:57;99395.59;;;54.53
15144;BMP180;7672;50.834;6.286;2022-08-04T09:12:51;99404.09;;;54.37
15144;BMP180;7672;50.834;6.286;2022-08-04T09:15:44;99408.84;;;54.12
15144;BMP180;7672;50.834;6.286;2022-08-04T09:19:05;99404.34;;;53.92
15144;BMP180;7672;50.834;6.286;2022-08-04T09:22:24;99408.53;;;53.60
15144;BMP180;7672;50.834;6.286;2022-08-04T09:28:05;99416.00;;;52.55
15144;BMP180;7672;50.834;6.286;2022-08-04T09:31:16;99422.06;;;51.96
15144;BMP180;7672;50.834;6.286;2022-08-04T09:37:43;99415.09;;;51.03
15144;BMP180;7672;50.834;6.286;2022-08-04T09:40:27;99407.75;;;50.62
15144;BMP180;7672;50.834;6.286;2022-08-04T09:47:51;99421.34;;;49.18
15144;BMP180;7672;50.834;6.286;2022-08-04T09:50:45;99423.19;;;48.68
15144;BMP180;7672;50.834;6.286;2022-08-04T09:57:06;99424.75;;;47.81
15144;BMP180;7672;50.834;6.286;2022-08-04T09:59:56;99432.22;;;47.56
15144;BMP180;7672;50.834;6.286;2022-08-04T10:02:35;99441.31;;;47.44
15144;BMP180;7672;50.834;6.286;2022-08-04T10:05:47;99435.03;;;47.50
15144;BMP180;7672;50.834;6.286;2022-08-04T10:09:00;99451.16;;;47.89
15144;BMP180;7672;50.834;6.286;2022-08-04T10:15:20;99436.38;;;48.86
15144;BMP180;7672;50.834;6.286;2022-08-04T10:24:35;99454.84;;;50.33
15144;BMP180;7672;50.834;6.286;2022-08-04T10:30:22;99457.22;;;50.56
15144;BMP180;7672;50.834;6.286;2022-08-04T10:36:21;99470.72;;;50.61
15144;BMP180;7672;50.834;6.286;2022-08-04T10:39:15;99478.81;;;50.61
15144;BMP180;7672;50.834;6.286;2022-08-04T10:42:35;99474.25;;;50.40
15144;BMP180;7672;50.834;6.286;2022-08-04T10:45:26;99474.91;;;50.05
15144;BMP180;7672;50.834;6.286;2022-08-04T10:48:25;99463.53;;;49.55
15144;BMP180;7672;50.834;6.286;2022-08-04T10:51:46;99470.84;;;48.94
15144;BMP180;7672;50.834;6.286;2022-08-04T10:55:04;99467.53;;;48.15
15144;BMP180;7672;50.834;6.286;2022-08-04T10:57:50;99474.72;;;47.53
15144;BMP180;7672;50.834;6.286;2022-08-04T11:00:26;99470.13;;;46.96
15144;BMP180;7672;50.834;6.286;2022-08-04T11:03:50;99477.78;;;46.22
15144;BMP180;7672;50.834;6.286;2022-08-04T11:06:23;99471.28;;;45.58
15144;BMP180;7672;50.834;6.286;2022-08-04T11:08:54;99474.25;;;45.02
15144;BMP180;7672;50.834;6.286;2022-08-04T11:11:48;99472.22;;;44.36
15144;BMP180;7672;50.834;6.286;2022-08-04T11:14:47;99470.56;;;43.72
15144;BMP180;7672;50.834;6.286;2022-08-04T11:17:54;99447.72;;;42.93
15144;BMP180;7672;50.834;6.286;2022-08-04T11:20:54;99454.53;;;42.24
15144;BMP180;7672;50.834;6.286;2022-08-04T11:23:58;99458.47;;;41.60
15144;BMP180;7672;50.834;6.286;2022-08-04T11:27:00;99468.91;;;40.93
15144;BMP180;7672;50.834;6.286;2022-08-04T11:32:48;99463.59;;;40.01
15144;BMP180;7672;50.834;6.286;2022-08-04T11:36:09;99469.19;;;39.63
15144;BMP180;7672;50.834;6.286;2022-08-04T11:39:04;99460.59;;;39.47
15144;BMP180;7672;50.834;6.286;2022-08-04T11:44:42;99455.09;;;39.34
15144;BMP180;7672;50.834;6.286;2022-08-04T11:50:43;99466.34;;;39.13
15144;BMP180;7672;50.834;6.286;2022-08-04T11:53:33;99467.69;;;39.09
15144;BMP180;7672;50.834;6.286;2022-08-04T11:56:06;99465.59;;;39.05
15144;BMP180;7672;50.834;6.286;2022-08-04T11:58:55;99470.22;;;39.03
15144;BMP180;7672;50.834;6.286;2022-08-04T12:04:57;99477.81;;;39.06
15144;BMP180;7672;50.834;6.286;2022-08-04T12:07:59;99480.56;;;39.12
15144;BMP180;7672;50.834;6.286;2022-08-04T12:10:54;99481.78;;;39.24
15144;BMP180;7672;50.834;6.286;2022-08-04T12:17:07;99486.13;;;39.68
15144;BMP180;7672;50.834;6.286;2022-08-04T12:19:50;99481.59;;;39.91
15144;BMP180;7672;50.834;6.286;2022-08-04T12:22:46;99475.53;;;40.12
15144;BMP180;7672;50.834;6.286;2022-08-04T12:25:25;99472.34;;;40.31
15144;BMP180;7672;50.834;6.286;2022-08-04T12:28:39;99470.09;;;40.48
15144;BMP180;7672;50.834;6.286;2022-08-04T12:31:35;99475.00;;;40.66
15144;BMP180;7672;50.834;6.286;2022-08-04T12:34:34;99460.00;;;40.73
15144;BMP180;7672;50.834;6.286;2022-08-04T12:37:40;99465.97;;;40.81
15144;BMP180;7672;50.834;6.286;2022-08-04T12:40:28;99458.66;;;40.83
15144;BMP180;7672;50.834;6.286;2022-08-04T12:43:36;99458.84;;;40.82
15144;BMP180;7672;50.834;6.286;2022-08-04T12:46:21;99464.16;;;40.82
15144;BMP180;7672;50.834;6.286;2022-08-04T12:48:51;99461.66;;;40.80
15144;BMP180;7672;50.834;6.286;2022-08-04T12:51:35;99460.06;;;40.79
15144;BMP180;7672;50.834;6.286;2022-08-04T12:54:25;99457.22;;;40.81
15144;BMP180;7672;50.834;6.286;2022-08-04T12:57:05;99452.34;;;40.84
15144;BMP180;7672;50.834;6.286;2022-08-04T12:59:44;99451.56;;;40.90
15144;BMP180;7672;50.834;6.286;2022-08-04T13:02:26;99457.75;;;40.97
15144;BMP180;7672;50.834;6.286;2022-08-04T13:05:10;99460.28;;;41.05
15144;BMP180;7672;50.834;6.286;2022-08-04T13:07:49;99457.09;;;41.09
15144;BMP180;7672;50.834;6.286;2022-08-04T13:10:25;99459.34;;;41.12
15144;BMP180;7672;50.834;6.286;2022-08-04T13:13:36;99456.44;;;41.07
15144;BMP180;7672;50.834;6.286;2022-08-04T13:16:13;99472.75;;;41.04
15144;BMP180;7672;50.834;6.286;2022-08-04T13:18:51;99470.38;;;40.95
15144;BMP180;7672;50.834;6.286;2022-08-04T13:21:29;99469.72;;;40.87
15144;BMP180;7672;50.834;6.286;2022-08-04T13:24:24;99461.63;;;40.74
15144;BMP180;7672;50.834;6.286;2022-08-04T13:27:09;99461.75;;;40.66
15144;BMP180;7672;50.834;6.286;2022-08-04T13:29:44;99455.09;;;40.55
15144;BMP180;7672;50.834;6.286;2022-08-04T13:32:50;99459.06;;;40.45
15144;BMP180;7672;50.834;6.286;2022-08-04T13:35:29;99460.56;;;40.33
15144;BMP180;7672;50.834;6.286;2022-08-04T13:38:23;99457.28;;;40.17
15144;BMP180;7672;50.834;6.286;2022-08-04T13:41:05;99462.41;;;40.04
15144;BMP180;7672;50.834;6.286;2022-08-04T13:43:48;99465.63;;;39.85
15144;BMP180;7672;50.834;6.286;2022-08-04T13:46:58;99464.41;;;39.59
15144;BMP180;7672;50.834;6.286;2022-08-04T13:49:29;99463.94;;;39.41
15144;BMP180;7672;50.834;6.286;2022-08-04T13:52:25;99471.72;;;39.57
15144;BMP180;7672;50.834;6.286;2022-08-04T13:54:57;99470.47;;;39.16
15144;BMP180;7672;50.834;6.286;2022-08-04T13:57:30;99466.56;;;38.82
15144;BMP180;7672;50.834;6.286;2022-08-04T14:00:11;99474.19;;;38.54
15144;BMP180;7672;50.834;6.286;2022-08-04T14:03:33;99460.53;;;38.21
15144;BMP180;7672;50.834;6.286;2022-08-04T14:06:30;99457.16;;;37.96
15144;BMP180;7672;50.834;6.286;2022-08-04T14:09:23;99459.69;;;37.74
15144;BMP180;7672;50.834;6.286;2022-08-04T14:12:16;99467.34;;;37.53
15144;BMP180;7672;50.834;6.286;2022-08-04T14:15:47;99468.50;;;37.19
15144;BMP180;7672;50.834;6.286;2022-08-04T14:18:33;99474.28;;;36.99
15144;BMP180;7672;50.834;6.286;2022-08-04T14:23:52;99469.13;;;36.65
15144;BMP180;7672;50.834;6.286;2022-08-04T14:26:26;99464.31;;;36.53
15144;BMP180;7672;50.834;6.286;2022-08-04T14:29:15;99473.03;;;36.38
15144;BMP180;7672;50.834;6.286;2022-08-04T14:32:02;99462.63;;;36.28
15144;BMP180;7672;50.834;6.286;2022-08-04T14:34:39;99464.72;;;36.17
15144;BMP180;7672;50.834;6.286;2022-08-04T14:37:39;99472.72;;;36.07
15144;BMP180;7672;50.834;6.286;2022-08-04T14:40:34;99473.69;;;35.98
15144;BMP180;7672;50.834;6.286;2022-08-04T14:43:02;99459.69;;;35.90
15144;BMP180;7672;50.834;6.286;2022-08-04T14:45:47;99452.84;;;35.79
15144;BMP180;7672;50.834;6.286;2022-08-04T14:48:58;99450.81;;;35.66
15144;BMP180;7672;50.834;6.286;2022-08-04T14:51:58;99460.00;;;35.62
15144;BMP180;7672;50.834;6.286;2022-08-04T14:54:33;99457.50;;;35.52
15144;BMP180;7672;50.834;6.286;2022-08-04T14:57:08;99461.72;;;35.45
15144;BMP180;7672;50.834;6.286;2022-08-04T14:59:50;99461.47;;;35.39
15144;BMP180;7672;50.834;6.286;2022-08-04T15:02:41;99464.88;;;35.31
15144;BMP180;7672;50.834;6.286;2022-08-04T15:05:13;99461.88;;;35.26
15144;BMP180;7672;50.834;6.286;2022-08-04T15:08:07;99457.34;;;35.11
15144;BMP180;7672;50.834;6.286;2022-08-04T15:10:38;99456.44;;;35.03
15144;BMP180;7672;50.834;6.286;2022-08-04T15:13:06;99467.19;;;34.92
15144;BMP180;7672;50.834;6.286;2022-08-04T15:15:40;99482.50;;;34.79
15144;BMP180;7672;50.834;6.286;2022-08-04T15:18:10;99475.78;;;34.67
15144;BMP180;7672;50.834;6.286;2022-08-04T15:20:47;99477.00;;;34.55
15144;BMP180;7672;50.834;6.286;2022-08-04T15:23:31;99484.09;;;34.45
15144;BMP180;7672;50.834;6.286;2022-08-04T15:26:13;99468.69;;;34.33
15144;BMP180;7672;50.834;6.286;2022-08-04T15:28:49;99470.53;;;34.23
15144;BMP180;7672;50.834;6.286;2022-08-04T15:31:26;99467.84;;;34.15
15144;BMP180;7672;50.834;6.286;2022-08-04T15:34:48;99467.22;;;34.03
15144;BMP180;7672;50.834;6.286;2022-08-04T15:37:53;99466.09;;;33.96
15144;BMP180;7672;50.834;6.286;2022-08-04T15:40:46;99472.59;;;34.02
15144;BMP180;7672;50.834;6.286;2022-08-04T15:49:25;99461.09;;;34.12
15144;BMP180;7672;50.834;6.286;2022-08-04T15:52:08;99471.16;;;34.17
15144;BMP180;7672;50.834;6.286;2022-08-04T15:54:46;99463.53;;;34.23
15144;BMP180;7672;50.834;6.286;2022-08-04T15:58:07;99475.44;;;34.35
15144;BMP180;7672;50.834;6.286;2022-08-04T16:01:22;99478.53;;;34.48
15144;BMP180;7672;50.834;6.286;2022-08-04T16:03:53;99473.63;;;34.62
15144;BMP180;7672;50.834;6.286;2022-08-04T16:09:03;99463.06;;;34.89
15144;BMP180;7672;50.834;6.286;2022-08-04T16:11:44;99459.22;;;35.01
15144;BMP180;7672;50.834;6.286;2022-08-04T16:14:16;99442.91;;;35.15
15144;BMP180;7672;50.834;6.286;2022-08-04T16:16:48;99439.72;;;35.29
15144;BMP180;7672;50.834;6.286;2022-08-04T16:22:32;99438.06;;;35.45
15144;BMP180;7672;50.834;6.286;2022-08-04T16:25:06;99432.00;;;35.53
15144;BMP180;7672;50.834;6.286;2022-08-04T16:27:49;99428.97;;;35.65
15144;BMP180;7672;50.834;6.286;2022-08-04T16:30:25;99422.59;;;35.76
15144;BMP180;7672;50.834;6.286;2022-08-04T16:33:09;99420.16;;;35.82
15144;BMP180;7672;50.834;6.286;2022-08-04T16:35:52;99412.94;;;35.84
15144;BMP180;7672;50.834;6.286;2022-08-04T16:39:03;99411.44;;;35.74
15144;BMP180;7672;50.834;6.286;2022-08-04T16:41:39;99415.84;;;35.73
15144;BMP180;7672;50.834;6.286;2022-08-04T16:44:34;99415.66;;;35.67
15144;BMP180;7672;50.834;6.286;2022-08-04T16:50:21;99408.31;;;35.45
15144;BMP180;7672;50.834;6.286;2022-08-04T16:52:53;99411.19;;;35.34
15144;BMP180;7672;50.834;6.286;2022-08-04T16:55:51;99411.09;;;35.18
15144;BMP180;7672;50.834;6.286;2022-08-04T17:01:24;99415.63;;;34.91
15144;BMP180;7672;50.834;6.286;2022-08-04T17:04:07;99421.94;;;34.80
15144;BMP180;7672;50.834;6.286;2022-08-04T17:06:47;99429.88;;;34.71
15144;BMP180;7672;50.834;6.286;2022-08-04T17:09:29;99420.97;;;34.64
15144;BMP180;7672;50.834;6.286;2022-08-04T17:11:57;99422.16;;;34.52
15144;BMP180;7672;50.834;6.286;2022-08-04T17:14:29;99419.44;;;34.44
15144;BMP180;7672;50.834;6.286;2022-08-04T17:17:01;99415.09;;;34.35
15144;BMP180;7672;50.834;6.286;2022-08-04T17:19:35;99409.25;;;34.24
15144;BMP180;7672;50.834;6.286;2022-08-04T17:22:06;99423.25;;;34.15
15144;BMP180;7672;50.834;6.286;2022-08-04T17:24:50;99413.81;;;33.95
15144;BMP180;7672;50.834;6.286;2022-08-04T17:27:43;99418.16;;;33.77
15144;BMP180;7672;50.834;6.286;2022-08-04T17:30:35;99429.44;;;33.60
15144;BMP180;7672;50.834;6.286;2022-08-04T17:33:18;99422.28;;;33.43
15144;BMP180;7672;50.834;6.286;2022-08-04T17:36:21;99429.63;;;33.30
15144;BMP180;7672;50.834;6.286;2022-08-04T17:39:14;99431.88;;;33.16
15144;BMP180;7672;50.834;6.286;2022-08-04T17:41:43;99438.78;;;33.08
15144;BMP180;7672;50.834;6.286;2022-08-04T17:44:40;99436.41;;;32.95
15144;BMP180;7672;50.834;6.286;2022-08-04T17:47:18;99439.06;;;32.86
15144;BMP180;7672;50.834;6.286;2022-08-04T17:50:04;99432.59;;;32.80
15144;BMP180;7672;50.834;6.286;2022-08-04T17:52:37;99433.28;;;32.73
15144;BMP180;7672;50.834;6.286;2022-08-04T17:55:16;99430.50;;;32.65
15144;BMP180;7672;50.834;6.286;2022-08-04T17:57:46;99435.34;;;32.60
15144;BMP180;7672;50.834;6.286;2022-08-04T18:00:41;99428.19;;;32.53
15144;BMP180;7672;50.834;6.286;2022-08-04T18:03:56;99433.50;;;32.42
15144;BMP180;7672;50.834;6.286;2022-08-04T18:06:38;99435.56;;;32.38
15144;BMP180;7672;50.834;6.286;2022-08-04T18:09:07;99435.28;;;32.32
15144;BMP180;7672;50.834;6.286;2022-08-04T18:12:02;99427.97;;;32.26
15144;BMP180;7672;50.834;6.286;2022-08-04T18:14:49;99438.84;;;32.21
15144;BMP180;7672;50.834;6.286;2022-08-04T18:17:43;99442.28;;;32.12
15144;BMP180;7672;50.834;6.286;2022-08-04T18:20:58;99443.75;;;32.05
15144;BMP180;7672;50.834;6.286;2022-08-04T18:23:55;99440.94;;;31.97
15144;BMP180;7672;50.834;6.286;2022-08-04T18:26:28;99444.78;;;31.93
15144;BMP180;7672;50.834;6.286;2022-08-04T18:29:14;99441.88;;;31.87
15144;BMP180;7672;50.834;6.286;2022-08-04T18:31:58;99442.13;;;31.84
15144;BMP180;7672;50.834;6.286;2022-08-04T18:34:59;99447.19;;;31.76
15144;BMP180;7672;50.834;6.286;2022-08-04T18:37:35;99446.78;;;31.71
15144;BMP180;7672;50.834;6.286;2022-08-04T18:40:40;99450.16;;;31.62
15144;BMP180;7672;50.834;6.286;2022-08-04T18:43:27;99460.19;;;31.57
15144;BMP180;7672;50.834;6.286;2022-08-04T18:46:14;99458.22;;;31.50
15144;BMP180;7672;50.834;6.286;2022-08-04T18:48:45;99464.75;;;31.44
15144;BMP180;7672;50.834;6.286;2022-08-04T18:51:18;99462.09;;;31.35
15144;BMP180;7672;50.834;6.286;2022-08-04T18:53:56;99456.13;;;31.24
15144;BMP180;7672;50.834;6.286;2022-08-04T18:56:37;99469.81;;;31.16
15144;BMP180;7672;50.834;6.286;2022-08-04T18:59:28;99476.16;;;31.03
15144;BMP180;7672;50.834;6.286;2022-08-04T19:01:59;99489.13;;;30.93
15144;BMP180;7672;50.834;6.286;2022-08-04T19:04:48;99484.88;;;30.81
15144;BMP180;7672;50.834;6.286;2022-08-04T19:07:20;99494.19;;;30.74
15144;BMP180;7672;50.834;6.286;2022-08-04T19:10:16;99501.09;;;30.65
15144;BMP180;7672;50.834;6.286;2022-08-04T19:12:58;99504.91;;;30.61
15144;BMP180;7672;50.834;6.286;2022-08-04T19:15:29;99509.88;;;30.53
15144;BMP180;7672;50.834;6.286;2022-08-04T19:18:12;99508.97;;;30.43
15144;BMP180;7672;50.834;6.286;2022-08-04T19:20:46;99517.25;;;30.37
15144;BMP180;7672;50.834;6.286;2022-08-04T19:23:32;99523.06;;;30.29
15144;BMP180;7672;50.834;6.286;2022-08-04T19:26:24;99518.69;;;30.19
15144;BMP180;7672;50.834;6.286;2022-08-04T19:28:57;99526.03;;;30.14
15144;BMP180;7672;50.834;6.286;2022-08-04T19:31:36;99528.31;;;30.07
15144;BMP180;7672;50.834;6.286;2022-08-04T19:34:07;99534.09;;;30.00
15144;BMP180;7672;50.834;6.286;2022-08-04T19:36:38;99532.78;;;29.95
15144;BMP180;7672;50.834;6.286;2022-08-04T19:39:11;99532.34;;;29.90